createdAt,value
2019-01-13T00:01:57.755Z,70.47
2019-01-13T00:04:27.129Z,70.91
2019-01-13T00:06:56.536Z,70.45
2019-01-13T00:09:25.911Z,70.45
2019-01-13T00:11:55.304Z,69.69
2019-01-13T00:14:24.628Z,69.49
2019-01-13T00:16:53.946Z,71.37
2019-01-13T00:19:23.259Z,70.91
2019-01-13T00:21:52.669Z,70.96
2019-01-13T00:24:21.982Z,70.27
2019-01-13T00:26:51.566Z,71.19
2019-01-13T00:29:20.962Z,70.52
2019-01-13T00:31:50.283Z,69.55
2019-01-13T00:34:19.595Z,69.97
2019-01-13T00:36:48.898Z,70.51
2019-01-13T00:39:18.467Z,70.89
2019-01-13T00:41:47.784Z,70.04
2019-01-13T00:44:17.105Z,69.28
2019-01-13T00:46:46.489Z,69.36
2019-01-13T00:49:15.821Z,69.22
2019-01-13T00:51:45.210Z,69.95
2019-01-13T00:54:14.526Z,69.30
2019-01-13T00:56:43.823Z,67.77
2019-01-13T00:59:13.139Z,68.60
2019-01-13T01:01:42.535Z,68.02
2019-01-13T01:04:11.929Z,68.14
2019-01-13T01:06:41.325Z,68.25
2019-01-13T01:09:10.813Z,69.32
2019-01-13T01:11:40.215Z,68.90
2019-01-13T01:14:09.556Z,67.97
2019-01-13T01:16:38.873Z,67.95
2019-01-13T01:19:08.188Z,67.30
2019-01-13T01:21:37.582Z,67.41
2019-01-13T01:24:06.901Z,68.22
2019-01-13T01:26:36.204Z,68.01
2019-01-13T01:29:05.512Z,67.86
2019-01-13T01:31:34.826Z,67.60
2019-01-13T01:34:04.158Z,67.00
2019-01-13T01:36:33.544Z,66.90
2019-01-13T01:39:04.229Z,66.60
2019-01-13T01:41:33.554Z,66.88
2019-01-13T01:44:02.904Z,66.79
2019-01-13T01:46:32.306Z,67.74
2019-01-13T01:49:01.612Z,68.20
2019-01-13T01:51:30.946Z,67.49
2019-01-13T01:54:00.258Z,67.27
2019-01-13T01:56:29.563Z,67.17
2019-01-13T01:58:58.870Z,66.96
2019-01-13T02:01:28.196Z,67.14
2019-01-13T02:03:57.544Z,66.63
2019-01-13T02:06:26.933Z,67.27
2019-01-13T02:08:56.233Z,66.78
2019-01-13T02:11:25.621Z,66.53
2019-01-13T02:13:54.981Z,66.75
2019-01-13T02:16:24.300Z,66.69
2019-01-13T02:18:53.626Z,66.88
2019-01-13T02:21:23.060Z,65.96
2019-01-13T02:23:52.407Z,66.38
2019-01-13T02:26:21.842Z,65.93
2019-01-13T02:28:51.179Z,66.25
2019-01-13T02:31:20.525Z,66.29
2019-01-13T02:33:49.856Z,66.65
2019-01-13T02:36:19.203Z,66.38
2019-01-13T02:38:48.529Z,66.60
2019-01-13T02:41:17.868Z,66.31
2019-01-13T02:43:47.208Z,66.40
2019-01-13T02:46:16.643Z,68.16
2019-01-13T02:48:46.054Z,68.33
2019-01-13T02:51:15.398Z,68.05
2019-01-13T02:53:44.730Z,67.96
2019-01-13T02:56:14.079Z,69.05
2019-01-13T02:58:43.429Z,68.78
2019-01-13T03:01:12.785Z,68.59
2019-01-13T03:03:42.140Z,69.21
2019-01-13T03:06:11.558Z,68.40
2019-01-13T03:08:40.891Z,68.97
2019-01-13T03:11:10.377Z,68.97
2019-01-13T03:13:39.798Z,68.56
2019-01-13T03:16:09.138Z,67.95
2019-01-13T03:18:38.490Z,68.31
2019-01-13T03:21:07.901Z,69.39
2019-01-13T03:23:37.231Z,68.12
2019-01-13T03:26:06.631Z,68.66
2019-01-13T03:28:36.033Z,68.51
2019-01-13T03:31:11.972Z,68.72
2019-01-13T03:33:36.477Z,68.68
2019-01-13T03:36:05.881Z,68.45
2019-01-13T03:38:35.228Z,67.83
2019-01-13T03:41:04.581Z,67.37
2019-01-13T03:43:33.994Z,68.46
2019-01-13T03:46:03.400Z,67.92
2019-01-13T03:48:32.738Z,67.76
2019-01-13T03:51:02.124Z,67.24
2019-01-13T03:53:31.491Z,67.25
2019-01-13T03:56:00.829Z,66.67
2019-01-13T03:58:30.165Z,67.53
2019-01-13T04:00:59.487Z,67.53
2019-01-13T04:03:28.907Z,67.10
2019-01-13T04:05:58.322Z,67.15
2019-01-13T04:08:27.670Z,67.51
2019-01-13T04:10:56.996Z,67.18
2019-01-13T04:13:26.352Z,67.57
2019-01-13T04:15:59.919Z,67.28
2019-01-13T04:18:29.377Z,67.47
2019-01-13T04:20:58.829Z,66.93
2019-01-13T04:23:28.319Z,67.33
2019-01-13T04:25:57.738Z,67.12
2019-01-13T04:28:27.149Z,67.51
2019-01-13T04:30:56.566Z,67.35
2019-01-13T04:33:25.975Z,67.48
2019-01-13T04:35:55.318Z,67.27
2019-01-13T04:38:24.657Z,67.70
2019-01-13T04:40:54.000Z,67.29
2019-01-13T04:43:23.350Z,67.43
2019-01-13T04:45:52.675Z,67.66
2019-01-13T04:48:22.026Z,67.09
2019-01-13T04:50:51.357Z,66.98
2019-01-13T04:53:20.780Z,67.01
2019-01-13T04:55:50.154Z,67.36
2019-01-13T04:58:19.515Z,67.56
2019-01-13T05:00:48.863Z,67.56
2019-01-13T05:03:18.246Z,67.85
2019-01-13T05:05:47.594Z,67.62
2019-01-13T05:08:16.965Z,68.18
2019-01-13T05:10:46.393Z,69.55
2019-01-13T05:13:15.761Z,69.34
2019-01-13T05:15:45.099Z,69.20
2019-01-13T05:18:14.452Z,68.36
2019-01-13T05:20:43.799Z,69.61
2019-01-13T05:23:13.139Z,69.06
2019-01-13T05:25:42.488Z,68.63
2019-01-13T05:28:11.836Z,68.56
2019-01-13T05:30:41.184Z,68.70
2019-01-13T05:33:10.551Z,67.82
2019-01-13T05:35:39.984Z,68.22
2019-01-13T05:38:09.402Z,67.99
2019-01-13T05:40:38.756Z,67.93
2019-01-13T05:43:08.105Z,67.53
2019-01-13T05:45:37.591Z,67.88
2019-01-13T05:48:06.979Z,67.59
2019-01-13T05:50:36.330Z,68.17
2019-01-13T05:53:05.921Z,67.27
2019-01-13T05:55:35.341Z,68.37
2019-01-13T05:58:04.738Z,68.84
2019-01-13T06:00:38.751Z,68.60
2019-01-13T06:03:08.357Z,68.21
2019-01-13T06:05:37.698Z,68.45
2019-01-13T06:08:07.102Z,68.13
2019-01-13T06:10:36.469Z,68.42
2019-01-13T06:13:05.798Z,68.27
2019-01-13T06:15:35.135Z,68.83
2019-01-13T06:18:04.997Z,69.34
2019-01-13T06:20:34.332Z,69.48
2019-01-13T06:23:03.673Z,69.24
2019-01-13T06:25:33.104Z,69.03
2019-01-13T06:28:02.739Z,70.45
2019-01-13T06:30:32.076Z,69.20
2019-01-13T06:33:01.412Z,70.01
2019-01-13T06:35:30.753Z,70.44
2019-01-13T06:38:00.095Z,70.16
2019-01-13T06:40:29.442Z,69.38
2019-01-13T06:42:58.781Z,69.51
2019-01-13T06:45:28.192Z,69.56
2019-01-13T06:47:57.529Z,69.32
2019-01-13T06:50:26.876Z,69.09
2019-01-13T06:52:56.219Z,69.77
2019-01-13T06:55:25.602Z,70.21
2019-01-13T06:57:54.939Z,70.49
2019-01-13T07:00:26.058Z,70.33
2019-01-13T07:02:55.626Z,70.90
2019-01-13T07:05:25.065Z,71.77
2019-01-13T07:07:54.480Z,71.03
2019-01-13T07:10:23.983Z,70.46
2019-01-13T07:12:53.326Z,71.36
2019-01-13T07:15:22.820Z,70.65
2019-01-13T07:17:52.278Z,72.28
2019-01-13T07:20:22.277Z,71.39
2019-01-13T07:22:51.711Z,72.26
2019-01-13T07:25:21.050Z,69.81
2019-01-13T07:27:50.466Z,71.26
2019-01-13T07:30:24.332Z,71.30
2019-01-13T07:32:53.872Z,70.75
2019-01-13T07:35:23.751Z,71.24
2019-01-13T07:37:53.252Z,71.71
2019-01-13T07:40:23.545Z,71.04
2019-01-13T07:42:53.600Z,71.04
2019-01-13T07:45:24.658Z,69.77
2019-01-13T07:47:54.083Z,70.21
2019-01-13T07:50:23.513Z,69.74
2019-01-13T07:52:52.957Z,69.79
2019-01-13T07:55:23.222Z,69.92
2019-01-13T07:57:52.569Z,70.15
2019-01-13T08:00:27.382Z,69.98
2019-01-13T08:02:57.120Z,70.57
2019-01-13T08:05:26.529Z,70.18
2019-01-13T08:07:55.889Z,69.42
2019-01-13T08:10:25.313Z,70.47
2019-01-13T08:12:54.653Z,70.44
2019-01-13T08:15:24.000Z,70.57
2019-01-13T08:17:53.428Z,70.24
2019-01-13T08:20:25.214Z,71.48
2019-01-13T08:22:54.633Z,71.30
2019-01-13T08:25:24.103Z,72.39
2019-01-13T08:27:53.455Z,71.06
2019-01-13T08:30:23.056Z,70.18
2019-01-13T08:32:52.528Z,71.48
2019-01-13T08:35:21.864Z,71.67
2019-01-13T08:37:51.357Z,71.29
2019-01-13T08:40:21.951Z,70.69
2019-01-13T08:42:51.438Z,71.14
2019-01-13T08:45:21.022Z,70.08
2019-01-13T08:47:50.440Z,70.04
2019-01-13T08:50:23.785Z,70.21
2019-01-13T08:52:56.017Z,70.23
2019-01-13T08:55:27.232Z,71.14
2019-01-13T08:57:56.832Z,70.00
2019-01-13T09:00:31.222Z,69.60
2019-01-13T09:03:00.803Z,70.49
2019-01-13T09:05:30.166Z,70.79
2019-01-13T09:08:01.158Z,72.57
2019-01-13T09:10:30.580Z,71.42
2019-01-13T09:13:00.118Z,71.79
2019-01-13T09:15:29.479Z,70.46
2019-01-13T09:17:58.854Z,71.74
2019-01-13T09:20:31.823Z,71.24
2019-01-13T09:23:02.079Z,70.87
2019-01-13T09:25:36.366Z,71.55
2019-01-13T09:28:06.682Z,71.61
2019-01-13T09:30:36.100Z,70.79
2019-01-13T09:33:06.261Z,71.01
2019-01-13T09:35:35.762Z,72.07
2019-01-13T09:38:06.663Z,72.35
2019-01-13T09:40:36.284Z,71.64
2019-01-13T09:43:06.307Z,72.93
2019-01-13T09:45:35.640Z,72.13
2019-01-13T09:48:05.245Z,71.39
2019-01-13T09:50:34.608Z,72.82
2019-01-13T09:53:07.293Z,72.29
2019-01-13T09:55:36.706Z,72.53
2019-01-13T09:58:06.228Z,72.30
2019-01-13T10:00:36.824Z,72.95
2019-01-13T10:03:07.711Z,72.71
2019-01-13T10:05:37.336Z,73.25
2019-01-13T10:08:07.018Z,73.62
2019-01-13T10:10:36.467Z,74.14
2019-01-13T10:13:05.808Z,73.90
2019-01-13T10:15:35.294Z,73.27
2019-01-13T10:18:04.709Z,72.79
2019-01-13T10:20:34.059Z,74.41
2019-01-13T10:23:03.556Z,75.27
2019-01-13T10:25:33.035Z,73.52
2019-01-13T10:28:02.472Z,72.95
2019-01-13T10:30:32.556Z,72.46
2019-01-13T10:33:02.007Z,73.41
2019-01-13T10:35:31.531Z,72.55
2019-01-13T10:38:01.085Z,73.44
2019-01-13T10:40:31.230Z,74.75
2019-01-13T10:43:00.868Z,74.22
2019-01-13T10:45:31.068Z,75.44
2019-01-13T10:48:00.566Z,75.46
2019-01-13T10:50:31.281Z,75.68
2019-01-13T10:53:02.830Z,74.48
2019-01-13T10:55:32.322Z,73.75
2019-01-13T10:58:01.750Z,74.12
2019-01-13T11:00:33.145Z,74.79
2019-01-13T11:03:02.890Z,73.64
2019-01-13T11:05:32.417Z,74.95
2019-01-13T11:08:01.907Z,74.40
2019-01-13T11:10:31.398Z,73.90
2019-01-13T11:13:00.723Z,73.02
2019-01-13T11:15:30.127Z,72.52
2019-01-13T11:17:59.461Z,73.03
2019-01-13T11:20:34.039Z,73.17
2019-01-13T11:23:03.876Z,75.12
2019-01-13T11:25:33.296Z,74.44
2019-01-13T11:28:02.715Z,73.97
2019-01-13T11:30:32.119Z,73.39
2019-01-13T11:33:01.474Z,72.67
2019-01-13T11:35:30.892Z,73.38
2019-01-13T11:38:00.226Z,72.97
2019-01-13T11:40:29.851Z,74.21
2019-01-13T11:42:59.222Z,73.81
2019-01-13T11:45:28.639Z,73.23
2019-01-13T11:47:58.066Z,69.72
2019-01-13T11:50:27.752Z,72.99
2019-01-13T11:52:57.242Z,72.46
2019-01-13T11:55:26.644Z,72.42
2019-01-13T11:57:56.087Z,73.08
2019-01-13T12:00:40.314Z,74.38
2019-01-13T12:03:16.476Z,74.96
2019-01-13T12:05:40.856Z,72.58
2019-01-13T12:08:10.466Z,73.01
2019-01-13T12:10:39.923Z,73.18
2019-01-13T12:13:09.385Z,71.59
2019-01-13T12:15:38.771Z,73.43
2019-01-13T12:18:08.286Z,74.08
2019-01-13T12:20:37.691Z,73.17
2019-01-13T12:23:07.174Z,72.10
2019-01-13T12:25:36.604Z,73.77
2019-01-13T12:28:06.104Z,72.69
2019-01-13T12:30:35.722Z,72.23
2019-01-13T12:33:05.346Z,72.18
2019-01-13T12:35:34.747Z,72.18
2019-01-13T12:38:04.177Z,72.73
2019-01-13T12:40:33.633Z,72.15
2019-01-13T12:43:06.972Z,72.90
2019-01-13T12:45:36.323Z,73.20
2019-01-13T12:48:06.247Z,73.73
2019-01-13T12:50:35.658Z,73.35
2019-01-13T12:53:05.232Z,72.71
2019-01-13T12:55:34.648Z,71.18
2019-01-13T12:58:04.093Z,71.55
2019-01-13T13:00:33.564Z,72.74
2019-01-13T13:03:02.975Z,71.54
2019-01-13T13:05:32.396Z,71.52
2019-01-13T13:08:01.820Z,70.61
2019-01-13T13:10:34.287Z,71.32
2019-01-13T13:13:03.787Z,71.53
2019-01-13T13:15:33.210Z,70.64
2019-01-13T13:18:02.608Z,70.80
2019-01-13T13:20:32.040Z,70.24
2019-01-13T13:23:01.450Z,70.29
2019-01-13T13:25:32.000Z,69.64
2019-01-13T13:28:01.603Z,70.47
2019-01-13T13:30:31.047Z,68.89
2019-01-13T13:33:00.587Z,69.27
2019-01-13T13:35:29.992Z,68.73
2019-01-13T13:37:59.508Z,68.48
2019-01-13T13:40:28.975Z,68.73
2019-01-13T13:42:58.363Z,68.84
2019-01-13T13:45:27.706Z,69.43
2019-01-13T13:47:57.047Z,69.09
2019-01-13T13:50:27.192Z,68.32
2019-01-13T13:52:56.591Z,68.80
2019-01-13T13:55:26.019Z,70.10
2019-01-13T13:57:55.339Z,70.21
2019-01-13T14:00:26.932Z,71.75
2019-01-13T14:02:56.348Z,71.33
2019-01-13T14:05:25.871Z,71.05
2019-01-13T14:07:55.228Z,72.59
2019-01-13T14:10:30.354Z,72.97
2019-01-13T14:12:59.781Z,72.11
2019-01-13T14:15:29.115Z,70.69
2019-01-13T14:17:58.537Z,71.56
2019-01-13T14:20:27.998Z,72.29
2019-01-13T14:22:57.406Z,70.64
2019-01-13T14:25:26.752Z,72.56
2019-01-13T14:27:56.178Z,72.95
2019-01-13T14:30:26.334Z,72.63
2019-01-13T14:32:56.035Z,72.62
2019-01-13T14:35:25.440Z,71.30
2019-01-13T14:37:54.847Z,72.75
2019-01-13T14:40:25.450Z,72.98
2019-01-13T14:42:56.435Z,70.10
2019-01-13T14:45:26.835Z,72.64
2019-01-13T14:47:56.295Z,74.04
2019-01-13T14:50:28.599Z,72.95
2019-01-13T14:52:58.009Z,74.08
2019-01-13T14:55:27.536Z,73.22
2019-01-13T14:57:56.952Z,73.24
2019-01-13T15:00:29.464Z,71.14
2019-01-13T15:02:59.081Z,71.06
2019-01-13T15:05:28.405Z,72.86
2019-01-13T15:07:57.750Z,71.71
2019-01-13T15:10:27.111Z,71.70
2019-01-13T15:12:56.474Z,72.54
2019-01-13T15:15:25.957Z,73.70
2019-01-13T15:17:55.294Z,73.86
2019-01-13T15:20:24.908Z,72.54
2019-01-13T15:22:54.319Z,73.15
2019-01-13T15:25:26.047Z,73.03
2019-01-13T15:27:55.555Z,69.11
2019-01-13T15:30:35.789Z,72.95
2019-01-13T15:33:06.277Z,71.54
2019-01-13T15:35:35.684Z,72.90
2019-01-13T15:38:05.609Z,71.62
2019-01-13T15:40:34.956Z,72.40
2019-01-13T15:43:04.760Z,73.04
2019-01-13T15:45:34.246Z,75.39
2019-01-13T15:48:03.746Z,75.97
2019-01-13T15:50:33.108Z,76.23
2019-01-13T15:53:02.483Z,74.65
2019-01-13T15:55:31.886Z,74.66
2019-01-13T15:58:01.226Z,72.47
2019-01-13T16:00:35.440Z,73.17
2019-01-13T16:03:06.364Z,74.05
2019-01-13T16:05:35.719Z,74.14
2019-01-13T16:10:53.913Z,74.21
2019-01-13T16:13:23.296Z,75.43
2019-01-13T16:15:52.850Z,75.80
2019-01-13T16:18:22.444Z,74.63
2019-01-13T16:20:51.844Z,73.17
2019-01-13T16:23:21.239Z,74.72
2019-01-13T16:25:50.620Z,74.32
2019-01-13T16:28:20.081Z,74.39
2019-01-13T16:30:49.540Z,75.29
2019-01-13T16:33:18.946Z,74.94
2019-01-13T16:35:48.396Z,75.69
2019-01-13T16:38:17.792Z,74.91
2019-01-13T16:40:47.485Z,73.98
2019-01-13T16:43:16.976Z,74.88
2019-01-13T16:45:46.347Z,74.49
2019-01-13T16:48:15.830Z,74.86
2019-01-13T16:50:45.225Z,73.73
2019-01-13T16:53:14.727Z,74.54
2019-01-13T16:55:44.216Z,75.69
2019-01-13T16:58:13.707Z,75.35
2019-01-13T17:00:43.182Z,72.66
2019-01-13T17:03:12.676Z,73.35
2019-01-13T17:05:42.149Z,75.97
2019-01-13T17:08:11.642Z,75.09
2019-01-13T17:10:41.062Z,73.06
2019-01-13T17:13:10.545Z,78.33
2019-01-13T17:15:39.975Z,78.05
2019-01-13T17:18:09.898Z,76.57
2019-01-13T17:20:39.467Z,76.93
2019-01-13T17:23:08.957Z,76.73
2019-01-13T17:25:38.474Z,76.21
2019-01-13T17:28:07.984Z,76.78
2019-01-13T17:30:37.724Z,77.79
2019-01-13T17:33:07.330Z,78.06
2019-01-13T17:35:36.818Z,77.84
2019-01-13T17:38:06.324Z,78.25
2019-01-13T17:40:35.909Z,77.86
2019-01-13T17:43:05.657Z,76.79
2019-01-13T17:45:35.718Z,76.46
2019-01-13T17:48:06.689Z,76.69
2019-01-13T17:50:36.107Z,77.75
2019-01-13T17:53:07.233Z,77.51
2019-01-13T17:55:36.767Z,77.44
2019-01-13T17:58:06.260Z,76.87
2019-01-13T18:00:51.096Z,77.86
2019-01-13T18:03:24.709Z,78.39
2019-01-13T18:05:54.185Z,78.12
2019-01-13T18:08:23.623Z,78.21
2019-01-13T18:10:53.206Z,78.70
2019-01-13T18:13:22.710Z,78.13
2019-01-13T18:15:52.102Z,77.43
2019-01-13T18:18:21.531Z,78.02
2019-01-13T18:20:51.040Z,78.79
2019-01-13T18:23:20.669Z,78.79
2019-01-13T18:25:50.160Z,79.06
2019-01-13T18:28:19.643Z,79.26
2019-01-13T18:30:49.204Z,79.20
2019-01-13T18:33:18.881Z,78.14
2019-01-13T18:35:48.369Z,77.68
2019-01-13T18:38:17.761Z,79.37
2019-01-13T18:40:47.261Z,78.76
2019-01-13T18:43:16.671Z,79.04
2019-01-13T18:45:46.341Z,78.35
2019-01-13T18:48:15.884Z,78.71
2019-01-13T18:50:45.400Z,78.14
2019-01-13T18:53:15.699Z,79.04
2019-01-13T18:55:45.286Z,78.49
2019-01-13T18:58:14.676Z,79.33
2019-01-13T19:00:44.144Z,79.23
2019-01-13T19:03:13.716Z,79.20
2019-01-13T19:05:43.192Z,78.83
2019-01-13T19:08:12.752Z,78.06
2019-01-13T19:11:05.338Z,78.08
2019-01-13T19:13:57.050Z,79.13
2019-01-13T19:16:27.015Z,77.56
2019-01-13T19:18:56.803Z,77.71
2019-01-13T19:21:26.321Z,78.04
2019-01-13T19:23:55.909Z,79.37
2019-01-13T19:26:25.347Z,77.48
2019-01-13T19:28:54.825Z,79.12
2019-01-13T19:31:24.328Z,78.95
2019-01-13T19:33:53.789Z,78.88
2019-01-13T19:36:23.287Z,78.85
2019-01-13T19:38:52.665Z,78.46
2019-01-13T19:41:22.223Z,79.21
2019-01-13T19:43:51.640Z,78.72
2019-01-13T19:46:21.107Z,78.92
2019-01-13T19:48:50.505Z,79.06
2019-01-13T19:51:19.890Z,79.27
2019-01-13T19:53:49.280Z,78.65
2019-01-13T19:56:18.670Z,78.07
2019-01-13T19:58:48.061Z,79.25
2019-01-13T20:01:17.456Z,78.91
2019-01-13T20:03:46.835Z,79.89
2019-01-13T20:06:16.317Z,80.20
2019-01-13T20:08:45.745Z,78.77
2019-01-13T20:11:15.228Z,79.41
2019-01-13T20:13:44.608Z,79.34
2019-01-13T20:16:14.131Z,79.78
2019-01-13T20:18:43.534Z,79.79
2019-01-13T20:21:12.958Z,78.95
2019-01-13T20:23:42.389Z,78.20
2019-01-13T20:26:11.860Z,79.29
2019-01-13T20:28:41.263Z,80.25
2019-01-13T20:31:10.795Z,80.57
2019-01-13T20:33:43.192Z,80.89
2019-01-13T20:36:12.572Z,80.12
2019-01-13T20:38:42.017Z,79.83
2019-01-13T20:41:11.541Z,79.17
2019-01-13T20:43:41.002Z,80.04
2019-01-13T20:46:10.460Z,79.97
2019-01-13T20:48:39.877Z,79.74
2019-01-13T20:51:09.322Z,78.72
2019-01-13T20:53:38.735Z,80.13
2019-01-13T20:56:08.161Z,79.34
2019-01-13T20:58:37.797Z,78.25
2019-01-13T21:01:07.234Z,77.83
2019-01-13T21:03:36.640Z,76.44
2019-01-13T21:06:06.170Z,73.75
2019-01-13T21:08:35.580Z,76.17
2019-01-13T21:11:05.071Z,72.39
2019-01-13T21:13:34.486Z,70.87
2019-01-13T21:16:03.943Z,71.39
2019-01-13T21:18:33.418Z,71.73
2019-01-13T21:21:02.954Z,74.23
2019-01-13T21:23:32.385Z,73.08
2019-01-13T21:26:01.758Z,73.74
2019-01-13T21:28:31.182Z,71.92
2019-01-13T21:31:00.591Z,67.52
2019-01-13T21:33:30.126Z,65.51
2019-01-13T21:35:59.606Z,66.29
2019-01-13T21:38:29.174Z,67.78
2019-01-13T21:40:58.802Z,68.73
2019-01-13T21:43:28.356Z,73.27
2019-01-13T21:45:57.762Z,73.16
2019-01-13T21:48:27.144Z,72.09
2019-01-13T21:50:56.547Z,75.53
2019-01-13T21:53:26.071Z,75.40
2019-01-13T21:55:55.496Z,76.47
2019-01-13T21:58:25.011Z,77.27
2019-01-13T22:00:54.495Z,76.74
2019-01-13T22:03:24.017Z,77.29
2019-01-13T22:05:53.467Z,77.42
2019-01-13T22:08:23.497Z,77.11
2019-01-13T22:10:52.915Z,77.47
2019-01-13T22:13:22.327Z,76.75
2019-01-13T22:15:51.759Z,77.92
2019-01-13T22:18:21.174Z,78.70
2019-01-13T22:20:50.590Z,78.33
2019-01-13T22:23:20.001Z,78.37
2019-01-13T22:25:49.487Z,76.71
2019-01-13T22:28:19.042Z,78.19
2019-01-13T22:30:48.453Z,77.90
2019-01-13T22:33:17.975Z,78.51
2019-01-13T22:35:48.301Z,79.29
2019-01-13T22:38:17.934Z,79.70
2019-01-13T22:40:47.327Z,79.44
2019-01-13T22:43:16.778Z,77.92
2019-01-13T22:45:46.213Z,77.91
2019-01-13T22:48:15.595Z,77.12
2019-01-13T22:50:44.989Z,77.00
2019-01-13T22:53:14.505Z,70.84
2019-01-13T22:55:43.911Z,72.10
2019-01-13T22:58:13.281Z,70.25
2019-01-13T23:01:12.799Z,73.70
2019-01-13T23:03:42.247Z,73.13
2019-01-13T23:06:11.683Z,74.77
2019-01-13T23:08:41.166Z,67.85
2019-01-13T23:11:10.554Z,71.83
2019-01-13T23:13:40.200Z,67.83
2019-01-13T23:16:09.633Z,66.21
2019-01-13T23:18:39.004Z,70.57
2019-01-13T23:21:08.477Z,73.32
2019-01-13T23:23:37.929Z,75.67
2019-01-13T23:26:07.395Z,72.70
2019-01-13T23:28:36.770Z,75.93
2019-01-13T23:31:06.489Z,74.54
2019-01-13T23:33:35.858Z,70.96
2019-01-13T23:36:05.363Z,73.58
2019-01-13T23:38:34.807Z,68.42
2019-01-13T23:41:04.333Z,67.92
2019-01-13T23:43:33.672Z,69.32
2019-01-13T23:46:03.211Z,64.39
2019-01-13T23:48:32.663Z,70.47
2019-01-13T23:51:02.106Z,66.05
2019-01-13T23:53:31.485Z,62.98
2019-01-13T23:56:00.867Z,63.08
2019-01-13T23:58:30.256Z,64.16
